sensor_id;sensor_type;location;lat;lon;timestamp;P1;durP1;ratioP1;P2;durP2;ratioP2
28427;SDS011;15662;49.128;8.520;2023-05-16T00:00:50;17.70;;;15.07;;
28427;SDS011;15662;49.128;8.520;2023-05-16T00:03:19;16.02;;;14.40;;
28427;SDS011;15662;49.128;8.520;2023-05-16T00:05:47;17.67;;;14.52;;
28427;SDS011;15662;49.128;8.520;2023-05-16T00:08:16;18.10;;;15.40;;
28427;SDS011;15662;49.128;8.520;2023-05-16T00:10:44;15.88;;;14.18;;
28427;SDS011;15662;49.128;8.520;2023-05-16T00:13:11;19.67;;;15.00;;
28427;SDS011;15662;49.128;8.520;2023-05-16T00:15:39;17.10;;;14.80;;
28427;SDS011;15662;49.128;8.520;2023-05-16T00:18:07;15.73;;;14.02;;
28427;SDS011;15662;49.128;8.520;2023-05-16T00:20:35;20.15;;;14.75;;
28427;SDS011;15662;49.128;8.520;2023-05-16T00:23:04;16.38;;;14.68;;
28427;SDS011;15662;49.128;8.520;2023-05-16T00:25:32;16.38;;;14.65;;
28427;SDS011;15662;49.128;8.520;2023-05-16T00:27:59;18.05;;;14.75;;
28427;SDS011;15662;49.128;8.520;2023-05-16T00:30:27;15.73;;;13.85;;
28427;SDS011;15662;49.128;8.520;2023-05-16T00:32:55;18.90;;;15.00;;
28427;SDS011;15662;49.128;8.520;2023-05-16T00:35:23;20.05;;;15.57;;
28427;SDS011;15662;49.128;8.520;2023-05-16T00:37:51;18.52;;;15.18;;
28427;SDS011;15662;49.128;8.520;2023-05-16T00:40:20;19.88;;;16.98;;
28427;SDS011;15662;49.128;8.520;2023-05-16T00:42:48;17.92;;;16.02;;
28427;SDS011;15662;49.128;8.520;2023-05-16T00:45:16;20.42;;;16.65;;
28427;SDS011;15662;49.128;8.520;2023-05-16T00:47:46;23.50;;;18.52;;
28427;SDS011;15662;49.128;8.520;2023-05-16T00:50:15;22.58;;;18.45;;
28427;SDS011;15662;49.128;8.520;2023-05-16T00:52:44;23.02;;;19.38;;
28427;SDS011;15662;49.128;8.520;2023-05-16T00:55:13;23.83;;;19.67;;
28427;SDS011;15662;49.128;8.520;2023-05-16T00:57:41;21.65;;;18.10;;
28427;SDS011;15662;49.128;8.520;2023-05-16T01:00:09;22.00;;;18.92;;
28427;SDS011;15662;49.128;8.520;2023-05-16T01:02:38;24.30;;;19.27;;
28427;SDS011;15662;49.128;8.520;2023-05-16T01:05:06;25.67;;;19.95;;
28427;SDS011;15662;49.128;8.520;2023-05-16T01:07:35;25.40;;;20.25;;
28427;SDS011;15662;49.128;8.520;2023-05-16T01:10:06;26.30;;;20.65;;
28427;SDS011;15662;49.128;8.520;2023-05-16T01:12:47;24.33;;;19.67;;
28427;SDS011;15662;49.128;8.520;2023-05-16T01:15:43;26.02;;;21.00;;
28427;SDS011;15662;49.128;8.520;2023-05-16T01:21:12;29.55;;;21.70;;
28427;SDS011;15662;49.128;8.520;2023-05-16T01:26:26;45.33;;;30.55;;
28427;SDS011;15662;49.128;8.520;2023-05-16T01:28:56;41.85;;;29.23;;
28427;SDS011;15662;49.128;8.520;2023-05-16T01:31:24;29.52;;;23.55;;
28427;SDS011;15662;49.128;8.520;2023-05-16T01:33:52;40.55;;;28.42;;
28427;SDS011;15662;49.128;8.520;2023-05-16T01:36:23;31.20;;;23.90;;
28427;SDS011;15662;49.128;8.520;2023-05-16T01:39:01;28.67;;;22.73;;
28427;SDS011;15662;49.128;8.520;2023-05-16T01:42:03;27.90;;;21.92;;
28427;SDS011;15662;49.128;8.520;2023-05-16T01:47:39;28.60;;;21.95;;
28427;SDS011;15662;49.128;8.520;2023-05-16T01:50:14;28.27;;;22.30;;
28427;SDS011;15662;49.128;8.520;2023-05-16T01:55:15;28.98;;;22.50;;
28427;SDS011;15662;49.128;8.520;2023-05-16T01:58:08;28.58;;;22.55;;
28427;SDS011;15662;49.128;8.520;2023-05-16T02:00:37;30.23;;;22.73;;
28427;SDS011;15662;49.128;8.520;2023-05-16T02:03:07;28.75;;;23.08;;
28427;SDS011;15662;49.128;8.520;2023-05-16T02:05:35;31.42;;;24.02;;
28427;SDS011;15662;49.128;8.520;2023-05-16T02:08:03;30.75;;;23.75;;
28427;SDS011;15662;49.128;8.520;2023-05-16T02:10:31;29.48;;;22.60;;
28427;SDS011;15662;49.128;8.520;2023-05-16T02:12:59;28.63;;;22.48;;
28427;SDS011;15662;49.128;8.520;2023-05-16T02:15:27;28.85;;;22.33;;
28427;SDS011;15662;49.128;8.520;2023-05-16T02:17:55;31.17;;;23.52;;
28427;SDS011;15662;49.128;8.520;2023-05-16T02:20:24;28.77;;;22.13;;
28427;SDS011;15662;49.128;8.520;2023-05-16T02:22:53;31.45;;;22.85;;
28427;SDS011;15662;49.128;8.520;2023-05-16T02:25:21;30.33;;;22.67;;
28427;SDS011;15662;49.128;8.520;2023-05-16T02:27:48;29.25;;;22.50;;
28427;SDS011;15662;49.128;8.520;2023-05-16T02:30:16;29.50;;;22.75;;
28427;SDS011;15662;49.128;8.520;2023-05-16T02:32:44;30.10;;;21.98;;
28427;SDS011;15662;49.128;8.520;2023-05-16T02:35:12;27.77;;;21.58;;
28427;SDS011;15662;49.128;8.520;2023-05-16T02:37:40;27.75;;;21.92;;
28427;SDS011;15662;49.128;8.520;2023-05-16T02:40:08;29.95;;;21.80;;
28427;SDS011;15662;49.128;8.520;2023-05-16T02:42:37;29.08;;;21.10;;
28427;SDS011;15662;49.128;8.520;2023-05-16T02:45:05;28.25;;;20.83;;
28427;SDS011;15662;49.128;8.520;2023-05-16T02:47:33;23.75;;;19.67;;
28427;SDS011;15662;49.128;8.520;2023-05-16T02:50:01;25.08;;;20.42;;
28427;SDS011;15662;49.128;8.520;2023-05-16T02:52:29;26.90;;;19.63;;
28427;SDS011;15662;49.128;8.520;2023-05-16T02:54:57;26.02;;;19.98;;
28427;SDS011;15662;49.128;8.520;2023-05-16T02:57:45;26.52;;;20.58;;
28427;SDS011;15662;49.128;8.520;2023-05-16T03:00:13;24.35;;;18.63;;
28427;SDS011;15662;49.128;8.520;2023-05-16T03:02:44;25.27;;;18.45;;
28427;SDS011;15662;49.128;8.520;2023-05-16T03:05:13;22.15;;;17.85;;
28427;SDS011;15662;49.128;8.520;2023-05-16T03:07:40;22.13;;;17.45;;
28427;SDS011;15662;49.128;8.520;2023-05-16T03:10:08;23.02;;;18.63;;
28427;SDS011;15662;49.128;8.520;2023-05-16T03:12:37;23.20;;;18.35;;
28427;SDS011;15662;49.128;8.520;2023-05-16T03:15:05;22.75;;;17.90;;
28427;SDS011;15662;49.128;8.520;2023-05-16T03:17:35;22.58;;;17.13;;
28427;SDS011;15662;49.128;8.520;2023-05-16T03:20:03;25.15;;;18.17;;
28427;SDS011;15662;49.128;8.520;2023-05-16T03:22:35;22.73;;;17.55;;
28427;SDS011;15662;49.128;8.520;2023-05-16T03:25:03;20.90;;;17.15;;
28427;SDS011;15662;49.128;8.520;2023-05-16T03:27:31;23.58;;;18.30;;
28427;SDS011;15662;49.128;8.520;2023-05-16T03:29:59;26.33;;;17.73;;
28427;SDS011;15662;49.128;8.520;2023-05-16T03:32:27;21.17;;;17.25;;
28427;SDS011;15662;49.128;8.520;2023-05-16T03:34:55;24.92;;;17.67;;
28427;SDS011;15662;49.128;8.520;2023-05-16T03:37:23;20.92;;;16.20;;
28427;SDS011;15662;49.128;8.520;2023-05-16T03:39:52;20.50;;;17.27;;
28427;SDS011;15662;49.128;8.520;2023-05-16T03:42:20;22.35;;;17.08;;
28427;SDS011;15662;49.128;8.520;2023-05-16T03:44:48;21.60;;;17.23;;
28427;SDS011;15662;49.128;8.520;2023-05-16T03:47:15;20.98;;;17.38;;
28427;SDS011;15662;49.128;8.520;2023-05-16T03:49:43;22.98;;;17.70;;
28427;SDS011;15662;49.128;8.520;2023-05-16T03:52:11;24.67;;;18.30;;
28427;SDS011;15662;49.128;8.520;2023-05-16T03:54:39;26.42;;;18.30;;
28427;SDS011;15662;49.128;8.520;2023-05-16T03:57:06;20.67;;;16.40;;
28427;SDS011;15662;49.128;8.520;2023-05-16T03:59:34;20.67;;;16.02;;
28427;SDS011;15662;49.128;8.520;2023-05-16T04:02:02;22.55;;;16.23;;
28427;SDS011;15662;49.128;8.520;2023-05-16T04:04:30;20.63;;;16.85;;
28427;SDS011;15662;49.128;8.520;2023-05-16T04:06:59;20.90;;;15.95;;
28427;SDS011;15662;49.128;8.520;2023-05-16T04:09:28;18.80;;;15.90;;
28427;SDS011;15662;49.128;8.520;2023-05-16T04:11:55;24.20;;;17.95;;
28427;SDS011;15662;49.128;8.520;2023-05-16T04:14:23;26.20;;;17.27;;
28427;SDS011;15662;49.128;8.520;2023-05-16T04:16:51;35.70;;;23.05;;
28427;SDS011;15662;49.128;8.520;2023-05-16T04:19:19;22.42;;;17.25;;
28427;SDS011;15662;49.128;8.520;2023-05-16T04:21:47;24.67;;;17.00;;
28427;SDS011;15662;49.128;8.520;2023-05-16T04:24:14;22.25;;;15.52;;
28427;SDS011;15662;49.128;8.520;2023-05-16T04:26:42;19.48;;;15.18;;
28427;SDS011;15662;49.128;8.520;2023-05-16T04:29:11;20.48;;;14.90;;
28427;SDS011;15662;49.128;8.520;2023-05-16T04:31:40;20.48;;;15.35;;
28427;SDS011;15662;49.128;8.520;2023-05-16T04:34:08;19.30;;;14.75;;
28427;SDS011;15662;49.128;8.520;2023-05-16T04:36:35;19.95;;;15.05;;
28427;SDS011;15662;49.128;8.520;2023-05-16T04:39:04;22.45;;;16.33;;
28427;SDS011;15662;49.128;8.520;2023-05-16T04:41:32;21.67;;;15.50;;
28427;SDS011;15662;49.128;8.520;2023-05-16T04:44:02;22.55;;;15.55;;
28427;SDS011;15662;49.128;8.520;2023-05-16T04:46:30;24.73;;;17.02;;
28427;SDS011;15662;49.128;8.520;2023-05-16T04:48:58;20.48;;;14.50;;
28427;SDS011;15662;49.128;8.520;2023-05-16T04:51:26;18.35;;;13.82;;
28427;SDS011;15662;49.128;8.520;2023-05-16T04:53:54;18.98;;;14.02;;
28427;SDS011;15662;49.128;8.520;2023-05-16T04:56:22;16.90;;;13.50;;
28427;SDS011;15662;49.128;8.520;2023-05-16T04:58:50;17.05;;;13.25;;
28427;SDS011;15662;49.128;8.520;2023-05-16T05:01:17;17.23;;;13.60;;
28427;SDS011;15662;49.128;8.520;2023-05-16T05:03:45;21.80;;;14.73;;
28427;SDS011;15662;49.128;8.520;2023-05-16T05:06:14;18.73;;;13.63;;
28427;SDS011;15662;49.128;8.520;2023-05-16T05:08:42;18.23;;;13.38;;
28427;SDS011;15662;49.128;8.520;2023-05-16T05:11:10;17.63;;;13.55;;
28427;SDS011;15662;49.128;8.520;2023-05-16T05:13:39;16.70;;;12.45;;
28427;SDS011;15662;49.128;8.520;2023-05-16T05:16:07;21.60;;;13.27;;
28427;SDS011;15662;49.128;8.520;2023-05-16T05:18:35;18.35;;;12.65;;
28427;SDS011;15662;49.128;8.520;2023-05-16T05:21:03;17.17;;;12.43;;
28427;SDS011;15662;49.128;8.520;2023-05-16T05:23:32;18.63;;;13.15;;
28427;SDS011;15662;49.128;8.520;2023-05-16T05:26:01;14.20;;;11.13;;
28427;SDS011;15662;49.128;8.520;2023-05-16T05:28:28;15.88;;;11.65;;
28427;SDS011;15662;49.128;8.520;2023-05-16T05:30:56;16.38;;;11.20;;
28427;SDS011;15662;49.128;8.520;2023-05-16T05:33:27;16.88;;;11.32;;
28427;SDS011;15662;49.128;8.520;2023-05-16T05:35:55;13.40;;;10.82;;
28427;SDS011;15662;49.128;8.520;2023-05-16T05:38:23;15.98;;;10.52;;
28427;SDS011;15662;49.128;8.520;2023-05-16T05:40:51;16.90;;;10.55;;
28427;SDS011;15662;49.128;8.520;2023-05-16T05:43:19;14.73;;;11.10;;
28427;SDS011;15662;49.128;8.520;2023-05-16T05:45:47;15.35;;;10.57;;
28427;SDS011;15662;49.128;8.520;2023-05-16T05:48:15;13.73;;;10.57;;
28427;SDS011;15662;49.128;8.520;2023-05-16T05:50:44;13.80;;;10.20;;
28427;SDS011;15662;49.128;8.520;2023-05-16T05:53:12;12.95;;;9.50;;
28427;SDS011;15662;49.128;8.520;2023-05-16T05:55:40;13.90;;;9.40;;
28427;SDS011;15662;49.128;8.520;2023-05-16T05:58:08;12.13;;;8.80;;
28427;SDS011;15662;49.128;8.520;2023-05-16T06:00:36;11.43;;;9.20;;
28427;SDS011;15662;49.128;8.520;2023-05-16T06:03:05;12.63;;;9.43;;
28427;SDS011;15662;49.128;8.520;2023-05-16T06:05:34;10.90;;;8.48;;
28427;SDS011;15662;49.128;8.520;2023-05-16T06:08:02;9.82;;;7.45;;
28427;SDS011;15662;49.128;8.520;2023-05-16T06:10:29;9.40;;;7.18;;
28427;SDS011;15662;49.128;8.520;2023-05-16T06:12:59;7.28;;;6.57;;
28427;SDS011;15662;49.128;8.520;2023-05-16T06:15:28;8.07;;;6.45;;
28427;SDS011;15662;49.128;8.520;2023-05-16T06:17:56;6.50;;;5.85;;
28427;SDS011;15662;49.128;8.520;2023-05-16T06:20:24;7.50;;;5.82;;
28427;SDS011;15662;49.128;8.520;2023-05-16T06:22:52;7.38;;;6.10;;
28427;SDS011;15662;49.128;8.520;2023-05-16T06:25:20;7.03;;;5.80;;
28427;SDS011;15662;49.128;8.520;2023-05-16T06:27:48;7.05;;;5.00;;
28427;SDS011;15662;49.128;8.520;2023-05-16T06:30:16;5.43;;;4.50;;
28427;SDS011;15662;49.128;8.520;2023-05-16T06:32:46;6.15;;;4.45;;
28427;SDS011;15662;49.128;8.520;2023-05-16T06:35:14;5.75;;;4.63;;
28427;SDS011;15662;49.128;8.520;2023-05-16T06:37:42;5.65;;;4.72;;
28427;SDS011;15662;49.128;8.520;2023-05-16T06:40:12;8.35;;;3.88;;
28427;SDS011;15662;49.128;8.520;2023-05-16T06:42:40;4.43;;;4.00;;
28427;SDS011;15662;49.128;8.520;2023-05-16T06:45:11;4.07;;;3.50;;
28427;SDS011;15662;49.128;8.520;2023-05-16T06:47:39;5.70;;;3.50;;
28427;SDS011;15662;49.128;8.520;2023-05-16T06:50:07;3.22;;;2.80;;
28427;SDS011;15662;49.128;8.520;2023-05-16T06:55:08;3.42;;;3.10;;
28427;SDS011;15662;49.128;8.520;2023-05-16T06:57:36;4.38;;;3.05;;
28427;SDS011;15662;49.128;8.520;2023-05-16T07:00:04;2.85;;;2.60;;
28427;SDS011;15662;49.128;8.520;2023-05-16T07:02:33;5.60;;;3.95;;
28427;SDS011;15662;49.128;8.520;2023-05-16T07:05:01;13.15;;;8.43;;
28427;SDS011;15662;49.128;8.520;2023-05-16T07:07:28;3.83;;;3.30;;
28427;SDS011;15662;49.128;8.520;2023-05-16T07:09:56;2.85;;;2.65;;
28427;SDS011;15662;49.128;8.520;2023-05-16T07:12:24;2.30;;;2.10;;
28427;SDS011;15662;49.128;8.520;2023-05-16T07:14:52;2.38;;;2.08;;
28427;SDS011;15662;49.128;8.520;2023-05-16T07:17:20;2.10;;;2.00;;
28427;SDS011;15662;49.128;8.520;2023-05-16T07:19:49;4.43;;;1.88;;
28427;SDS011;15662;49.128;8.520;2023-05-16T07:22:17;1.90;;;1.80;;
28427;SDS011;15662;49.128;8.520;2023-05-16T07:24:45;1.80;;;1.70;;
28427;SDS011;15662;49.128;8.520;2023-05-16T07:27:13;1.70;;;1.60;;
28427;SDS011;15662;49.128;8.520;2023-05-16T07:29:43;1.70;;;1.60;;
28427;SDS011;15662;49.128;8.520;2023-05-16T07:32:13;1.70;;;1.60;;
28427;SDS011;15662;49.128;8.520;2023-05-16T07:34:43;1.73;;;1.48;;
28427;SDS011;15662;49.128;8.520;2023-05-16T07:37:10;1.23;;;1.20;;
28427;SDS011;15662;49.128;8.520;2023-05-16T07:39:39;1.58;;;1.10;;
28427;SDS011;15662;49.128;8.520;2023-05-16T07:42:09;1.58;;;1.48;;
28427;SDS011;15662;49.128;8.520;2023-05-16T07:44:37;1.40;;;1.40;;
28427;SDS011;15662;49.128;8.520;2023-05-16T07:47:05;1.33;;;1.20;;
28427;SDS011;15662;49.128;8.520;2023-05-16T07:49:33;2.25;;;0.90;;
28427;SDS011;15662;49.128;8.520;2023-05-16T07:52:01;1.50;;;1.40;;
28427;SDS011;15662;49.128;8.520;2023-05-16T07:54:33;1.20;;;1.20;;
28427;SDS011;15662;49.128;8.520;2023-05-16T07:57:01;1.10;;;1.10;;
28427;SDS011;15662;49.128;8.520;2023-05-16T07:59:30;2.05;;;1.00;;
28427;SDS011;15662;49.128;8.520;2023-05-16T08:01:58;1.10;;;1.10;;
28427;SDS011;15662;49.128;8.520;2023-05-16T08:04:26;1.30;;;1.20;;
28427;SDS011;15662;49.128;8.520;2023-05-16T08:06:54;1.10;;;1.10;;
28427;SDS011;15662;49.128;8.520;2023-05-16T08:09:23;0.90;;;0.90;;
28427;SDS011;15662;49.128;8.520;2023-05-16T08:11:52;1.10;;;1.10;;
28427;SDS011;15662;49.128;8.520;2023-05-16T08:14:20;2.55;;;1.67;;
28427;SDS011;15662;49.128;8.520;2023-05-16T08:16:48;1.67;;;1.58;;
28427;SDS011;15662;49.128;8.520;2023-05-16T08:19:16;2.58;;;1.80;;
28427;SDS011;15662;49.128;8.520;2023-05-16T08:21:44;1.13;;;1.10;;
28427;SDS011;15662;49.128;8.520;2023-05-16T08:24:13;1.23;;;1.23;;
28427;SDS011;15662;49.128;8.520;2023-05-16T08:26:44;0.88;;;0.88;;
28427;SDS011;15662;49.128;8.520;2023-05-16T08:29:13;1.10;;;1.10;;
28427;SDS011;15662;49.128;8.520;2023-05-16T08:31:41;2.05;;;1.95;;
28427;SDS011;15662;49.128;8.520;2023-05-16T08:34:08;1.48;;;1.38;;
28427;SDS011;15662;49.128;8.520;2023-05-16T08:36:36;1.70;;;1.38;;
28427;SDS011;15662;49.128;8.520;2023-05-16T08:39:05;1.02;;;1.02;;
28427;SDS011;15662;49.128;8.520;2023-05-16T08:41:33;3.25;;;0.90;;
28427;SDS011;15662;49.128;8.520;2023-05-16T08:44:01;1.30;;;1.00;;
28427;SDS011;15662;49.128;8.520;2023-05-16T08:46:30;2.58;;;0.90;;
28427;SDS011;15662;49.128;8.520;2023-05-16T08:49:01;1.30;;;1.20;;
28427;SDS011;15662;49.128;8.520;2023-05-16T08:51:34;1.60;;;1.50;;
28427;SDS011;15662;49.128;8.520;2023-05-16T08:54:08;1.00;;;1.00;;
28427;SDS011;15662;49.128;8.520;2023-05-16T08:56:43;2.55;;;1.15;;
28427;SDS011;15662;49.128;8.520;2023-05-16T08:59:11;1.52;;;1.17;;
28427;SDS011;15662;49.128;8.520;2023-05-16T09:01:39;1.10;;;1.00;;
28427;SDS011;15662;49.128;8.520;2023-05-16T09:04:09;0.82;;;0.82;;
28427;SDS011;15662;49.128;8.520;2023-05-16T09:06:39;1.23;;;0.70;;
28427;SDS011;15662;49.128;8.520;2023-05-16T09:09:07;1.95;;;0.82;;
28427;SDS011;15662;49.128;8.520;2023-05-16T09:11:41;0.98;;;0.85;;
28427;SDS011;15662;49.128;8.520;2023-05-16T09:14:08;1.63;;;1.10;;
28427;SDS011;15662;49.128;8.520;2023-05-16T09:16:36;0.85;;;0.80;;
28427;SDS011;15662;49.128;8.520;2023-05-16T09:19:05;0.65;;;0.65;;
28427;SDS011;15662;49.128;8.520;2023-05-16T09:21:33;0.57;;;0.57;;
28427;SDS011;15662;49.128;8.520;2023-05-16T09:24:05;0.70;;;0.70;;
28427;SDS011;15662;49.128;8.520;2023-05-16T09:26:36;1.88;;;0.90;;
28427;SDS011;15662;49.128;8.520;2023-05-16T09:34:07;1.50;;;0.60;;
28427;SDS011;15662;49.128;8.520;2023-05-16T09:36:39;0.70;;;0.70;;
28427;SDS011;15662;49.128;8.520;2023-05-16T09:39:09;0.70;;;0.70;;
28427;SDS011;15662;49.128;8.520;2023-05-16T09:41:42;1.40;;;0.73;;
28427;SDS011;15662;49.128;8.520;2023-05-16T09:44:11;0.68;;;0.68;;
28427;SDS011;15662;49.128;8.520;2023-05-16T09:46:39;2.00;;;0.88;;
28427;SDS011;15662;49.128;8.520;2023-05-16T09:49:10;1.80;;;1.20;;
28427;SDS011;15662;49.128;8.520;2023-05-16T09:51:40;1.75;;;0.85;;
28427;SDS011;15662;49.128;8.520;2023-05-16T09:54:08;1.02;;;0.90;;
28427;SDS011;15662;49.128;8.520;2023-05-16T09:56:48;0.82;;;0.82;;
28427;SDS011;15662;49.128;8.520;2023-05-16T09:59:17;0.70;;;0.70;;
28427;SDS011;15662;49.128;8.520;2023-05-16T10:01:45;1.70;;;1.10;;
28427;SDS011;15662;49.128;8.520;2023-05-16T10:04:15;1.27;;;1.00;;
28427;SDS011;15662;49.128;8.520;2023-05-16T10:06:44;0.90;;;0.90;;
28427;SDS011;15662;49.128;8.520;2023-05-16T10:09:15;3.17;;;1.20;;
28427;SDS011;15662;49.128;8.520;2023-05-16T10:11:46;1.60;;;0.87;;
28427;SDS011;15662;49.128;8.520;2023-05-16T10:14:16;1.70;;;0.65;;
28427;SDS011;15662;49.128;8.520;2023-05-16T10:16:46;0.70;;;0.70;;
28427;SDS011;15662;49.128;8.520;2023-05-16T10:19:18;2.00;;;0.70;;
28427;SDS011;15662;49.128;8.520;2023-05-16T10:21:52;0.50;;;0.50;;
28427;SDS011;15662;49.128;8.520;2023-05-16T10:24:30;0.65;;;0.60;;
28427;SDS011;15662;49.128;8.520;2023-05-16T10:27:14;2.00;;;0.73;;
28427;SDS011;15662;49.128;8.520;2023-05-16T10:29:45;0.60;;;0.60;;
28427;SDS011;15662;49.128;8.520;2023-05-16T10:32:22;0.70;;;0.70;;
28427;SDS011;15662;49.128;8.520;2023-05-16T10:34:52;0.88;;;0.40;;
28427;SDS011;15662;49.128;8.520;2023-05-16T10:37:22;2.05;;;0.38;;
28427;SDS011;15662;49.128;8.520;2023-05-16T10:39:50;4.22;;;0.40;;
28427;SDS011;15662;49.128;8.520;2023-05-16T10:42:19;0.82;;;0.80;;
28427;SDS011;15662;49.128;8.520;2023-05-16T10:44:47;0.70;;;0.70;;
28427;SDS011;15662;49.128;8.520;2023-05-16T10:47:31;0.35;;;0.35;;
28427;SDS011;15662;49.128;8.520;2023-05-16T10:50:00;1.02;;;0.60;;
28427;SDS011;15662;49.128;8.520;2023-05-16T10:52:33;0.40;;;0.40;;
28427;SDS011;15662;49.128;8.520;2023-05-16T10:55:02;2.08;;;1.02;;
28427;SDS011;15662;49.128;8.520;2023-05-16T10:57:32;0.80;;;0.80;;
28427;SDS011;15662;49.128;8.520;2023-05-16T11:00:02;2.40;;;0.40;;
28427;SDS011;15662;49.128;8.520;2023-05-16T11:02:39;2.97;;;0.80;;
28427;SDS011;15662;49.128;8.520;2023-05-16T11:05:10;2.33;;;0.60;;
28427;SDS011;15662;49.128;8.520;2023-05-16T11:07:45;6.50;;;0.47;;
28427;SDS011;15662;49.128;8.520;2023-05-16T11:10:31;1.63;;;0.50;;
28427;SDS011;15662;49.128;8.520;2023-05-16T11:13:01;1.55;;;0.30;;
28427;SDS011;15662;49.128;8.520;2023-05-16T11:15:35;2.17;;;0.52;;
28427;SDS011;15662;49.128;8.520;2023-05-16T11:18:04;0.30;;;0.30;;
28427;SDS011;15662;49.128;8.520;2023-05-16T11:20:36;1.65;;;0.40;;
28427;SDS011;15662;49.128;8.520;2023-05-16T11:25:47;1.70;;;0.40;;
28427;SDS011;15662;49.128;8.520;2023-05-16T11:28:23;0.47;;;0.47;;
28427;SDS011;15662;49.128;8.520;2023-05-16T11:30:56;0.50;;;0.50;;
28427;SDS011;15662;49.128;8.520;2023-05-16T11:33:26;2.45;;;0.50;;
28427;SDS011;15662;49.128;8.520;2023-05-16T11:36:00;0.47;;;0.47;;
28427;SDS011;15662;49.128;8.520;2023-05-16T11:38:42;1.55;;;0.90;;
28427;SDS011;15662;49.128;8.520;2023-05-16T11:41:10;0.77;;;0.77;;
28427;SDS011;15662;49.128;8.520;2023-05-16T11:43:41;0.50;;;0.50;;
28427;SDS011;15662;49.128;8.520;2023-05-16T11:46:11;0.70;;;0.70;;
28427;SDS011;15662;49.128;8.520;2023-05-16T11:48:40;1.50;;;0.60;;
28427;SDS011;15662;49.128;8.520;2023-05-16T11:51:09;0.68;;;0.68;;
28427;SDS011;15662;49.128;8.520;2023-05-16T11:53:37;2.55;;;1.10;;
28427;SDS011;15662;49.128;8.520;2023-05-16T11:56:06;0.70;;;0.70;;
28427;SDS011;15662;49.128;8.520;2023-05-16T11:58:34;1.02;;;0.75;;
28427;SDS011;15662;49.128;8.520;2023-05-16T12:01:04;0.93;;;0.80;;
28427;SDS011;15662;49.128;8.520;2023-05-16T12:03:32;4.38;;;1.70;;
28427;SDS011;15662;49.128;8.520;2023-05-16T12:06:02;1.15;;;0.90;;
28427;SDS011;15662;49.128;8.520;2023-05-16T12:08:30;1.25;;;1.02;;
28427;SDS011;15662;49.128;8.520;2023-05-16T12:10:57;1.10;;;1.10;;
28427;SDS011;15662;49.128;8.520;2023-05-16T12:13:26;1.13;;;1.00;;
28427;SDS011;15662;49.128;8.520;2023-05-16T12:15:54;1.83;;;1.48;;
28427;SDS011;15662;49.128;8.520;2023-05-16T12:18:24;1.27;;;1.17;;
28427;SDS011;15662;49.128;8.520;2023-05-16T12:20:52;1.23;;;0.60;;
28427;SDS011;15662;49.128;8.520;2023-05-16T12:23:20;0.88;;;0.70;;
28427;SDS011;15662;49.128;8.520;2023-05-16T12:25:48;1.73;;;1.05;;
28427;SDS011;15662;49.128;8.520;2023-05-16T12:28:16;1.02;;;0.70;;
28427;SDS011;15662;49.128;8.520;2023-05-16T12:30:44;2.40;;;0.70;;
28427;SDS011;15662;49.128;8.520;2023-05-16T12:33:14;1.25;;;0.77;;
28427;SDS011;15662;49.128;8.520;2023-05-16T12:35:43;2.97;;;0.90;;
28427;SDS011;15662;49.128;8.520;2023-05-16T12:38:14;1.63;;;0.63;;
28427;SDS011;15662;49.128;8.520;2023-05-16T12:40:43;1.00;;;0.60;;
28427;SDS011;15662;49.128;8.520;2023-05-16T12:43:15;2.03;;;0.80;;
28427;SDS011;15662;49.128;8.520;2023-05-16T12:48:21;2.90;;;1.20;;
28427;SDS011;15662;49.128;8.520;2023-05-16T12:50:50;2.17;;;0.90;;
28427;SDS011;15662;49.128;8.520;2023-05-16T12:53:19;2.17;;;1.13;;
28427;SDS011;15662;49.128;8.520;2023-05-16T12:55:47;3.42;;;1.65;;
28427;SDS011;15662;49.128;8.520;2023-05-16T12:58:15;3.85;;;1.98;;
28427;SDS011;15662;49.128;8.520;2023-05-16T13:00:47;6.32;;;1.60;;
28427;SDS011;15662;49.128;8.520;2023-05-16T13:03:15;3.00;;;1.38;;
28427;SDS011;15662;49.128;8.520;2023-05-16T13:05:44;1.10;;;1.05;;
28427;SDS011;15662;49.128;8.520;2023-05-16T13:08:13;1.00;;;0.90;;
28427;SDS011;15662;49.128;8.520;2023-05-16T13:10:43;3.05;;;1.10;;
28427;SDS011;15662;49.128;8.520;2023-05-16T13:13:11;3.42;;;1.13;;
28427;SDS011;15662;49.128;8.520;2023-05-16T13:15:55;2.53;;;1.15;;
28427;SDS011;15662;49.128;8.520;2023-05-16T13:18:23;2.42;;;1.08;;
28427;SDS011;15662;49.128;8.520;2023-05-16T13:20:50;2.80;;;0.93;;
28427;SDS011;15662;49.128;8.520;2023-05-16T13:23:20;3.30;;;1.13;;
28427;SDS011;15662;49.128;8.520;2023-05-16T13:25:48;3.17;;;1.20;;
28427;SDS011;15662;49.128;8.520;2023-05-16T13:28:16;4.97;;;1.20;;
28427;SDS011;15662;49.128;8.520;2023-05-16T13:30:45;1.58;;;1.00;;
28427;SDS011;15662;49.128;8.520;2023-05-16T13:33:16;2.75;;;1.30;;
28427;SDS011;15662;49.128;8.520;2023-05-16T13:35:44;3.10;;;1.25;;
28427;SDS011;15662;49.128;8.520;2023-05-16T13:38:13;2.30;;;1.00;;
28427;SDS011;15662;49.128;8.520;2023-05-16T13:40:41;3.58;;;1.30;;
28427;SDS011;15662;49.128;8.520;2023-05-16T13:43:13;2.80;;;1.35;;
28427;SDS011;15662;49.128;8.520;2023-05-16T13:45:41;4.28;;;1.40;;
28427;SDS011;15662;49.128;8.520;2023-05-16T13:48:10;3.63;;;1.30;;
28427;SDS011;15662;49.128;8.520;2023-05-16T13:50:38;3.17;;;1.40;;
28427;SDS011;15662;49.128;8.520;2023-05-16T13:53:12;2.75;;;1.38;;
28427;SDS011;15662;49.128;8.520;2023-05-16T13:55:40;3.95;;;1.42;;
28427;SDS011;15662;49.128;8.520;2023-05-16T13:58:08;4.50;;;1.60;;
28427;SDS011;15662;49.128;8.520;2023-05-16T14:00:36;4.07;;;1.23;;
28427;SDS011;15662;49.128;8.520;2023-05-16T14:03:12;4.10;;;1.25;;
28427;SDS011;15662;49.128;8.520;2023-05-16T14:05:40;3.97;;;1.40;;
28427;SDS011;15662;49.128;8.520;2023-05-16T14:08:09;5.43;;;1.67;;
28427;SDS011;15662;49.128;8.520;2023-05-16T14:10:36;3.08;;;1.30;;
28427;SDS011;15662;49.128;8.520;2023-05-16T14:13:04;3.15;;;1.23;;
28427;SDS011;15662;49.128;8.520;2023-05-16T14:15:32;5.50;;;1.30;;
28427;SDS011;15662;49.128;8.520;2023-05-16T14:18:00;5.22;;;1.38;;
28427;SDS011;15662;49.128;8.520;2023-05-16T14:20:32;8.25;;;1.40;;
28427;SDS011;15662;49.128;8.520;2023-05-16T14:23:00;6.18;;;1.70;;
28427;SDS011;15662;49.128;8.520;2023-05-16T14:25:28;5.93;;;1.67;;
28427;SDS011;15662;49.128;8.520;2023-05-16T14:27:56;5.07;;;1.40;;
28427;SDS011;15662;49.128;8.520;2023-05-16T14:30:24;3.70;;;1.20;;
28427;SDS011;15662;49.128;8.520;2023-05-16T14:32:53;2.70;;;1.08;;
28427;SDS011;15662;49.128;8.520;2023-05-16T14:35:22;4.63;;;1.30;;
28427;SDS011;15662;49.128;8.520;2023-05-16T14:37:53;1.57;;;1.00;;
28427;SDS011;15662;49.128;8.520;2023-05-16T14:40:21;4.95;;;4.15;;
28427;SDS011;15662;49.128;8.520;2023-05-16T14:42:49;6.03;;;2.38;;
28427;SDS011;15662;49.128;8.520;2023-05-16T14:45:17;3.15;;;1.67;;
28427;SDS011;15662;49.128;8.520;2023-05-16T14:47:45;2.85;;;1.10;;
28427;SDS011;15662;49.128;8.520;2023-05-16T14:50:14;2.42;;;1.02;;
28427;SDS011;15662;49.128;8.520;2023-05-16T14:52:42;4.03;;;1.30;;
28427;SDS011;15662;49.128;8.520;2023-05-16T14:55:10;3.38;;;1.10;;
28427;SDS011;15662;49.128;8.520;2023-05-16T14:57:38;4.28;;;1.40;;
28427;SDS011;15662;49.128;8.520;2023-05-16T15:00:10;3.60;;;1.23;;
28427;SDS011;15662;49.128;8.520;2023-05-16T15:02:41;3.33;;;1.27;;
28427;SDS011;15662;49.128;8.520;2023-05-16T15:05:09;2.15;;;1.25;;
28427;SDS011;15662;49.128;8.520;2023-05-16T15:07:37;6.43;;;3.83;;
28427;SDS011;15662;49.128;8.520;2023-05-16T15:10:07;7.80;;;6.70;;
28427;SDS011;15662;49.128;8.520;2023-05-16T15:12:37;5.78;;;2.42;;
28427;SDS011;15662;49.128;8.520;2023-05-16T15:15:07;2.08;;;1.40;;